KPOF/POF METAR and TAF weather

Enter ICAO airport designator
Station Type Date Time Source
KPOF METAR 2019/08/25 01:53 UTC NOAA

KPOF 250153Z AUTO 05004KT 10SM SCT036 BKN100 22/18 A3005 RMK AO2 SLP171 T02220178 $


Station Type Date Time Source
KPOF Decoded METAR 2019/08/25 01:53 UTC NOAA

Station name not available
Aug 24, 2019 - 09:53 PM EDT / 2019.08.25 0153 UTC
Wind: from the NE (050 degrees) at 5 MPH (4 KT):0
Visibility: 10 mile(s):0
Sky conditions: mostly cloudy
Temperature: 72.0 F (22.2 C)
Dew Point: 64.0 F (17.8 C)
Relative Humidity: 76%
Pressure (altimeter): 30.05 in. Hg (1017 hPa)
ob: KPOF 250153Z AUTO 05004KT 10SM SCT036 BKN100 22/18 A3005 RMK AO2 SLP171 T02220178
cycle: 2

Station Type Date Time Source
KPOF TAF UTC NOAA

Error!

Example: see airport list